aviador You're here:

CYMM Decoded Metar

FORT MCMURRAY in AB, CANADA
Report Time2018-01-21 06:00:00
UTC Time2018-01-21 06:45:42
Flight Rules vfr VFR
Wind330° at 04 kt
W.Decomp.*RWY 25: 1.8 kt HW 3.6 kt RCW
W.Rank330° ranks 10
Current wind is below 330° avg. (7.4)
Visibility9656 m
Phenomena:Light Snow
Clouds:Broken 042 Hf
Overcast 085 Hf
Expected CloudBase > 800 ft AGL from Temp-Dew spread
Ceiling4,200 ft
Temp-9°C (ISA -22)
Dew Point-11°C (86% RH)
AAT-13.6°C
QNH1013 hPa
Density Alt-1,434 ft
Elevation1,211 ft
Report Wrong Elevation
Raw Report
CYMM 210600Z AUTO 33004KT 6SM -SN BKN042 OVC085 M09/M11 A2992 RMK
SLP165=

Extra information for CYMM:More info

Metar Taf Metar & Taf Last 4 Metars F.Rules Stats Wind Profile Meteogram Temp Stats Airport Information Weather charts Add Link Nearby VenuesMetar ALERT Operation Metar Decoded Social comments